sensor_id;sensor_type;location;lat;lon;timestamp;temperature;humidity
1568;DHT22;777;47.156;8.326;2022-12-18T00:00:59;-1.40;99.90
1568;DHT22;777;47.156;8.326;2022-12-18T00:03:28;-1.40;99.90
1568;DHT22;777;47.156;8.326;2022-12-18T00:05:55;-1.50;99.90
1568;DHT22;777;47.156;8.326;2022-12-18T00:08:23;-1.50;99.90
1568;DHT22;777;47.156;8.326;2022-12-18T00:10:50;-1.50;99.90
1568;DHT22;777;47.156;8.326;2022-12-18T00:13:18;-1.50;99.90
1568;DHT22;777;47.156;8.326;2022-12-18T00:15:45;-1.50;99.90
1568;DHT22;777;47.156;8.326;2022-12-18T00:18:12;-1.50;99.90
1568;DHT22;777;47.156;8.326;2022-12-18T00:20:39;-1.50;99.90
1568;DHT22;777;47.156;8.326;2022-12-18T00:23:07;-1.50;99.90
1568;DHT22;777;47.156;8.326;2022-12-18T00:25:34;-1.60;99.90
1568;DHT22;777;47.156;8.326;2022-12-18T00:28:01;-1.60;99.90
1568;DHT22;777;47.156;8.326;2022-12-18T00:30:30;-1.70;99.90
1568;DHT22;777;47.156;8.326;2022-12-18T00:32:57;-1.70;99.90
1568;DHT22;777;47.156;8.326;2022-12-18T00:35:25;-1.70;99.90
1568;DHT22;777;47.156;8.326;2022-12-18T00:37:52;-1.70;99.90
1568;DHT22;777;47.156;8.326;2022-12-18T00:40:19;-1.70;99.90
1568;DHT22;777;47.156;8.326;2022-12-18T00:42:46;-1.70;99.90
1568;DHT22;777;47.156;8.326;2022-12-18T00:45:24;-1.70;99.90
1568;DHT22;777;47.156;8.326;2022-12-18T00:47:53;-1.80;99.90
1568;DHT22;777;47.156;8.326;2022-12-18T00:50:21;-1.80;99.90
1568;DHT22;777;47.156;8.326;2022-12-18T00:52:49;-1.80;99.90
1568;DHT22;777;47.156;8.326;2022-12-18T00:55:16;-1.80;99.90
1568;DHT22;777;47.156;8.326;2022-12-18T00:57:43;-1.80;99.90
1568;DHT22;777;47.156;8.326;2022-12-18T01:00:13;-1.80;99.90
1568;DHT22;777;47.156;8.326;2022-12-18T01:02:41;-1.80;99.90
1568;DHT22;777;47.156;8.326;2022-12-18T01:05:14;-1.80;99.90
1568;DHT22;777;47.156;8.326;2022-12-18T01:07:41;-1.80;99.90
1568;DHT22;777;47.156;8.326;2022-12-18T01:10:10;-1.70;99.90
1568;DHT22;777;47.156;8.326;2022-12-18T01:12:38;-1.80;99.90
1568;DHT22;777;47.156;8.326;2022-12-18T01:15:06;-1.80;99.90
1568;DHT22;777;47.156;8.326;2022-12-18T01:17:34;-1.80;99.90
1568;DHT22;777;47.156;8.326;2022-12-18T01:20:01;-1.80;99.90
1568;DHT22;777;47.156;8.326;2022-12-18T01:22:29;-1.80;99.90
1568;DHT22;777;47.156;8.326;2022-12-18T01:24:59;-1.80;99.90
1568;DHT22;777;47.156;8.326;2022-12-18T01:27:27;-1.80;99.90
1568;DHT22;777;47.156;8.326;2022-12-18T01:29:54;-1.80;99.90
1568;DHT22;777;47.156;8.326;2022-12-18T01:32:21;-1.80;99.90
1568;DHT22;777;47.156;8.326;2022-12-18T01:34:49;-1.80;99.90
1568;DHT22;777;47.156;8.326;2022-12-18T01:37:16;-1.80;99.90
1568;DHT22;777;47.156;8.326;2022-12-18T01:39:44;-1.80;99.90
1568;DHT22;777;47.156;8.326;2022-12-18T01:42:14;-1.80;99.90
1568;DHT22;777;47.156;8.326;2022-12-18T01:45:04;-1.80;99.90
1568;DHT22;777;47.156;8.326;2022-12-18T01:47:39;-1.80;99.90
1568;DHT22;777;47.156;8.326;2022-12-18T01:50:12;-1.80;99.90
1568;DHT22;777;47.156;8.326;2022-12-18T01:52:41;-1.70;99.90
1568;DHT22;777;47.156;8.326;2022-12-18T01:55:12;-1.70;99.90
1568;DHT22;777;47.156;8.326;2022-12-18T01:57:40;-1.70;99.90
1568;DHT22;777;47.156;8.326;2022-12-18T02:00:11;-1.70;99.90
1568;DHT22;777;47.156;8.326;2022-12-18T02:02:40;-1.60;99.90
1568;DHT22;777;47.156;8.326;2022-12-18T02:05:09;-1.60;99.90
1568;DHT22;777;47.156;8.326;2022-12-18T02:07:42;-1.50;99.90
1568;DHT22;777;47.156;8.326;2022-12-18T02:10:19;-1.50;99.90
1568;DHT22;777;47.156;8.326;2022-12-18T02:12:49;-1.50;99.90
1568;DHT22;777;47.156;8.326;2022-12-18T02:15:23;-1.50;99.90
1568;DHT22;777;47.156;8.326;2022-12-18T02:17:55;-1.50;99.90
1568;DHT22;777;47.156;8.326;2022-12-18T02:20:28;-1.50;99.90
1568;DHT22;777;47.156;8.326;2022-12-18T02:23:06;-1.50;99.90
1568;DHT22;777;47.156;8.326;2022-12-18T02:26:01;-1.40;99.90
1568;DHT22;777;47.156;8.326;2022-12-18T02:28:32;-1.40;99.90
1568;DHT22;777;47.156;8.326;2022-12-18T02:31:04;-1.40;99.90
1568;DHT22;777;47.156;8.326;2022-12-18T02:33:34;-1.40;99.90
1568;DHT22;777;47.156;8.326;2022-12-18T02:36:03;-1.50;99.90
1568;DHT22;777;47.156;8.326;2022-12-18T02:38:32;-1.60;99.90
1568;DHT22;777;47.156;8.326;2022-12-18T02:41:07;-1.70;99.90
1568;DHT22;777;47.156;8.326;2022-12-18T02:43:35;-1.70;99.90
1568;DHT22;777;47.156;8.326;2022-12-18T02:46:24;-1.70;99.90
1568;DHT22;777;47.156;8.326;2022-12-18T02:48:57;-1.60;99.90
1568;DHT22;777;47.156;8.326;2022-12-18T02:51:30;-1.60;99.90
1568;DHT22;777;47.156;8.326;2022-12-18T02:54:07;-1.60;99.90
1568;DHT22;777;47.156;8.326;2022-12-18T02:56:40;-1.60;99.90
1568;DHT22;777;47.156;8.326;2022-12-18T02:59:13;-1.70;99.90
1568;DHT22;777;47.156;8.326;2022-12-18T03:01:52;-1.70;99.90
1568;DHT22;777;47.156;8.326;2022-12-18T03:04:26;-1.80;99.90
1568;DHT22;777;47.156;8.326;2022-12-18T03:06:57;-1.80;99.90
1568;DHT22;777;47.156;8.326;2022-12-18T03:09:31;-1.90;99.90
1568;DHT22;777;47.156;8.326;2022-12-18T03:12:09;-2.00;99.90
1568;DHT22;777;47.156;8.326;2022-12-18T03:14:57;-2.10;99.90
1568;DHT22;777;47.156;8.326;2022-12-18T03:17:27;-2.10;99.90
1568;DHT22;777;47.156;8.326;2022-12-18T03:19:58;-2.10;99.90
1568;DHT22;777;47.156;8.326;2022-12-18T03:22:30;-2.10;99.90
1568;DHT22;777;47.156;8.326;2022-12-18T03:25:01;-2.10;99.90
1568;DHT22;777;47.156;8.326;2022-12-18T03:27:33;-2.10;99.90
1568;DHT22;777;47.156;8.326;2022-12-18T03:30:09;-2.10;99.90
1568;DHT22;777;47.156;8.326;2022-12-18T03:32:42;-2.10;99.90
1568;DHT22;777;47.156;8.326;2022-12-18T03:35:14;-2.10;99.90
1568;DHT22;777;47.156;8.326;2022-12-18T03:37:44;-2.10;99.90
1568;DHT22;777;47.156;8.326;2022-12-18T03:40:11;-2.10;99.90
1568;DHT22;777;47.156;8.326;2022-12-18T03:42:46;-2.10;99.90
1568;DHT22;777;47.156;8.326;2022-12-18T03:45:21;-2.00;99.90
1568;DHT22;777;47.156;8.326;2022-12-18T03:47:57;-2.00;99.90
1568;DHT22;777;47.156;8.326;2022-12-18T03:50:36;-2.00;99.90
1568;DHT22;777;47.156;8.326;2022-12-18T03:53:14;-2.00;99.90
1568;DHT22;777;47.156;8.326;2022-12-18T03:55:48;-2.00;99.90
1568;DHT22;777;47.156;8.326;2022-12-18T03:58:20;-2.00;99.90
1568;DHT22;777;47.156;8.326;2022-12-18T04:01:02;-1.90;99.90
1568;DHT22;777;47.156;8.326;2022-12-18T04:03:34;-1.90;99.90
1568;DHT22;777;47.156;8.326;2022-12-18T04:06:03;-1.80;99.90
1568;DHT22;777;47.156;8.326;2022-12-18T04:08:32;-1.90;99.90
1568;DHT22;777;47.156;8.326;2022-12-18T04:11:04;-2.00;99.90
1568;DHT22;777;47.156;8.326;2022-12-18T04:13:35;-1.90;99.90
1568;DHT22;777;47.156;8.326;2022-12-18T04:16:07;-1.90;99.90
1568;DHT22;777;47.156;8.326;2022-12-18T04:18:39;-1.90;99.90
1568;DHT22;777;47.156;8.326;2022-12-18T04:21:07;-1.90;99.90
1568;DHT22;777;47.156;8.326;2022-12-18T04:23:35;-1.90;99.90
1568;DHT22;777;47.156;8.326;2022-12-18T04:26:03;-1.80;99.90
1568;DHT22;777;47.156;8.326;2022-12-18T04:28:50;-1.80;99.90
1568;DHT22;777;47.156;8.326;2022-12-18T04:31:17;-1.80;99.90
1568;DHT22;777;47.156;8.326;2022-12-18T04:33:44;-1.80;99.90
1568;DHT22;777;47.156;8.326;2022-12-18T04:36:11;-1.80;99.90
1568;DHT22;777;47.156;8.326;2022-12-18T04:38:39;-1.90;99.90
1568;DHT22;777;47.156;8.326;2022-12-18T04:41:14;-1.80;99.90
1568;DHT22;777;47.156;8.326;2022-12-18T04:43:42;-1.90;99.90
1568;DHT22;777;47.156;8.326;2022-12-18T04:46:11;-1.90;99.90
1568;DHT22;777;47.156;8.326;2022-12-18T04:48:38;-1.90;99.90
1568;DHT22;777;47.156;8.326;2022-12-18T04:51:05;-1.90;99.90
1568;DHT22;777;47.156;8.326;2022-12-18T04:53:33;-1.90;99.90
1568;DHT22;777;47.156;8.326;2022-12-18T04:56:05;-1.90;99.90
1568;DHT22;777;47.156;8.326;2022-12-18T04:58:32;-1.90;99.90
1568;DHT22;777;47.156;8.326;2022-12-18T05:00:59;-1.90;99.90
1568;DHT22;777;47.156;8.326;2022-12-18T05:03:27;-1.90;99.90
1568;DHT22;777;47.156;8.326;2022-12-18T05:05:54;-1.90;99.90
1568;DHT22;777;47.156;8.326;2022-12-18T05:08:22;-1.90;99.90
1568;DHT22;777;47.156;8.326;2022-12-18T05:10:49;-1.90;99.90
1568;DHT22;777;47.156;8.326;2022-12-18T05:13:16;-1.90;99.90
1568;DHT22;777;47.156;8.326;2022-12-18T05:15:43;-1.90;99.90
1568;DHT22;777;47.156;8.326;2022-12-18T05:18:17;-2.00;99.90
1568;DHT22;777;47.156;8.326;2022-12-18T05:20:46;-2.00;99.90
1568;DHT22;777;47.156;8.326;2022-12-18T05:23:13;-2.10;99.90
1568;DHT22;777;47.156;8.326;2022-12-18T05:25:40;-2.10;99.90
1568;DHT22;777;47.156;8.326;2022-12-18T05:28:07;-2.10;99.90
1568;DHT22;777;47.156;8.326;2022-12-18T05:30:34;-2.30;99.90
1568;DHT22;777;47.156;8.326;2022-12-18T05:33:01;-2.30;99.90
1568;DHT22;777;47.156;8.326;2022-12-18T05:35:28;-2.30;99.90
1568;DHT22;777;47.156;8.326;2022-12-18T05:37:56;-2.30;99.90
1568;DHT22;777;47.156;8.326;2022-12-18T05:40:23;-2.40;99.90
1568;DHT22;777;47.156;8.326;2022-12-18T05:42:50;-2.40;99.90
1568;DHT22;777;47.156;8.326;2022-12-18T05:45:17;-2.40;99.90
1568;DHT22;777;47.156;8.326;2022-12-18T05:47:44;-2.40;99.90
1568;DHT22;777;47.156;8.326;2022-12-18T05:50:11;-2.50;99.90
1568;DHT22;777;47.156;8.326;2022-12-18T05:52:38;-2.50;99.90
1568;DHT22;777;47.156;8.326;2022-12-18T05:55:07;-2.60;99.90
1568;DHT22;777;47.156;8.326;2022-12-18T05:57:34;-2.60;99.90
1568;DHT22;777;47.156;8.326;2022-12-18T06:00:01;-2.60;99.90
1568;DHT22;777;47.156;8.326;2022-12-18T06:02:37;-2.60;99.90
1568;DHT22;777;47.156;8.326;2022-12-18T06:05:05;-2.60;99.90
1568;DHT22;777;47.156;8.326;2022-12-18T06:07:32;-2.60;99.90
1568;DHT22;777;47.156;8.326;2022-12-18T06:09:59;-2.50;99.90
1568;DHT22;777;47.156;8.326;2022-12-18T06:12:27;-2.50;99.90
1568;DHT22;777;47.156;8.326;2022-12-18T06:14:54;-2.40;99.90
1568;DHT22;777;47.156;8.326;2022-12-18T06:17:22;-2.40;99.90
1568;DHT22;777;47.156;8.326;2022-12-18T06:19:48;-2.40;99.90
1568;DHT22;777;47.156;8.326;2022-12-18T06:22:15;-2.30;99.90
1568;DHT22;777;47.156;8.326;2022-12-18T06:24:43;-2.30;99.90
1568;DHT22;777;47.156;8.326;2022-12-18T06:27:10;-2.20;99.90
1568;DHT22;777;47.156;8.326;2022-12-18T06:29:38;-2.20;99.90
1568;DHT22;777;47.156;8.326;2022-12-18T06:32:05;-2.10;99.90
1568;DHT22;777;47.156;8.326;2022-12-18T06:34:33;-2.20;99.90
1568;DHT22;777;47.156;8.326;2022-12-18T06:37:00;-2.10;99.90
1568;DHT22;777;47.156;8.326;2022-12-18T06:39:27;-2.10;99.90
1568;DHT22;777;47.156;8.326;2022-12-18T06:41:54;-2.10;99.90
1568;DHT22;777;47.156;8.326;2022-12-18T06:44:21;-2.10;99.90
1568;DHT22;777;47.156;8.326;2022-12-18T06:46:50;-2.00;99.90
1568;DHT22;777;47.156;8.326;2022-12-18T06:49:17;-2.00;99.90
1568;DHT22;777;47.156;8.326;2022-12-18T06:51:44;-1.90;99.90
1568;DHT22;777;47.156;8.326;2022-12-18T06:54:11;-1.90;99.90
1568;DHT22;777;47.156;8.326;2022-12-18T06:56:38;-1.90;99.90
1568;DHT22;777;47.156;8.326;2022-12-18T06:59:05;-1.90;99.90
1568;DHT22;777;47.156;8.326;2022-12-18T07:01:32;-2.00;99.90
1568;DHT22;777;47.156;8.326;2022-12-18T07:04:00;-2.00;99.90
1568;DHT22;777;47.156;8.326;2022-12-18T07:06:27;-2.00;99.90
1568;DHT22;777;47.156;8.326;2022-12-18T07:08:55;-2.00;99.90
1568;DHT22;777;47.156;8.326;2022-12-18T07:11:22;-2.00;99.90
1568;DHT22;777;47.156;8.326;2022-12-18T07:13:49;-2.00;99.90
1568;DHT22;777;47.156;8.326;2022-12-18T07:16:18;-2.00;99.90
1568;DHT22;777;47.156;8.326;2022-12-18T07:18:45;-2.00;99.90
1568;DHT22;777;47.156;8.326;2022-12-18T07:21:17;-2.00;99.90
1568;DHT22;777;47.156;8.326;2022-12-18T07:23:45;-1.90;99.90
1568;DHT22;777;47.156;8.326;2022-12-18T07:26:14;-2.00;99.90
1568;DHT22;777;47.156;8.326;2022-12-18T07:28:43;-1.90;99.90
1568;DHT22;777;47.156;8.326;2022-12-18T07:31:12;-1.90;99.90
1568;DHT22;777;47.156;8.326;2022-12-18T07:33:39;-1.90;99.90
1568;DHT22;777;47.156;8.326;2022-12-18T07:36:07;-1.90;99.90
1568;DHT22;777;47.156;8.326;2022-12-18T07:38:38;-2.00;99.90
1568;DHT22;777;47.156;8.326;2022-12-18T07:41:07;-2.00;99.90
1568;DHT22;777;47.156;8.326;2022-12-18T07:43:35;-2.00;99.90
1568;DHT22;777;47.156;8.326;2022-12-18T07:46:03;-2.00;99.90
1568;DHT22;777;47.156;8.326;2022-12-18T07:48:30;-2.00;99.90
1568;DHT22;777;47.156;8.326;2022-12-18T07:50:58;-2.10;99.90
1568;DHT22;777;47.156;8.326;2022-12-18T07:53:25;-2.30;99.90
1568;DHT22;777;47.156;8.326;2022-12-18T07:55:56;-2.30;99.90
1568;DHT22;777;47.156;8.326;2022-12-18T07:58:24;-2.20;99.90
1568;DHT22;777;47.156;8.326;2022-12-18T08:00:51;-2.20;99.90
1568;DHT22;777;47.156;8.326;2022-12-18T08:03:19;-2.20;99.90
1568;DHT22;777;47.156;8.326;2022-12-18T08:05:46;-2.20;99.90
1568;DHT22;777;47.156;8.326;2022-12-18T08:08:16;-2.30;99.90
1568;DHT22;777;47.156;8.326;2022-12-18T08:10:43;-2.30;99.90
1568;DHT22;777;47.156;8.326;2022-12-18T08:13:12;-2.20;99.90
1568;DHT22;777;47.156;8.326;2022-12-18T08:15:39;-2.10;99.90
1568;DHT22;777;47.156;8.326;2022-12-18T08:18:06;-2.10;99.90
1568;DHT22;777;47.156;8.326;2022-12-18T08:20:33;-2.20;99.90
1568;DHT22;777;47.156;8.326;2022-12-18T08:23:00;-2.20;99.90
1568;DHT22;777;47.156;8.326;2022-12-18T08:25:27;-2.10;99.90
1568;DHT22;777;47.156;8.326;2022-12-18T08:27:54;-2.00;99.90
1568;DHT22;777;47.156;8.326;2022-12-18T08:30:23;-1.80;99.90
1568;DHT22;777;47.156;8.326;2022-12-18T08:32:51;-1.70;99.90
1568;DHT22;777;47.156;8.326;2022-12-18T08:35:18;-1.60;99.90
1568;DHT22;777;47.156;8.326;2022-12-18T08:37:45;-1.50;99.90
1568;DHT22;777;47.156;8.326;2022-12-18T08:40:12;-1.40;99.90
1568;DHT22;777;47.156;8.326;2022-12-18T08:42:39;-1.30;99.90
1568;DHT22;777;47.156;8.326;2022-12-18T08:45:25;-1.20;99.90
1568;DHT22;777;47.156;8.326;2022-12-18T08:47:52;-1.10;99.90
1568;DHT22;777;47.156;8.326;2022-12-18T08:50:19;-1.10;99.90
1568;DHT22;777;47.156;8.326;2022-12-18T08:52:46;-1.00;99.90
1568;DHT22;777;47.156;8.326;2022-12-18T08:55:13;-1.00;99.90
1568;DHT22;777;47.156;8.326;2022-12-18T08:57:40;-0.90;99.90
1568;DHT22;777;47.156;8.326;2022-12-18T09:00:08;-0.90;99.90
1568;DHT22;777;47.156;8.326;2022-12-18T09:02:37;-0.80;99.90
1568;DHT22;777;47.156;8.326;2022-12-18T09:05:05;-0.80;99.90
1568;DHT22;777;47.156;8.326;2022-12-18T09:07:32;-0.70;99.90
1568;DHT22;777;47.156;8.326;2022-12-18T09:09:59;-0.60;99.90
1568;DHT22;777;47.156;8.326;2022-12-18T09:12:26;-0.60;99.90
1568;DHT22;777;47.156;8.326;2022-12-18T09:14:53;-0.50;99.90
1568;DHT22;777;47.156;8.326;2022-12-18T09:17:20;-0.50;99.90
1568;DHT22;777;47.156;8.326;2022-12-18T09:19:48;-0.40;99.90
1568;DHT22;777;47.156;8.326;2022-12-18T09:22:16;-0.50;99.90
1568;DHT22;777;47.156;8.326;2022-12-18T09:24:42;-0.30;99.90
1568;DHT22;777;47.156;8.326;2022-12-18T09:27:09;-0.30;99.90
1568;DHT22;777;47.156;8.326;2022-12-18T09:29:37;-0.30;99.90
1568;DHT22;777;47.156;8.326;2022-12-18T09:32:04;-0.30;99.90
1568;DHT22;777;47.156;8.326;2022-12-18T09:34:31;-0.20;99.90
1568;DHT22;777;47.156;8.326;2022-12-18T09:37:00;-0.10;99.90
1568;DHT22;777;47.156;8.326;2022-12-18T09:39:26;-0.10;99.90
1568;DHT22;777;47.156;8.326;2022-12-18T09:41:55;-0.10;99.90
1568;DHT22;777;47.156;8.326;2022-12-18T09:44:26;0.00;99.90
1568;DHT22;777;47.156;8.326;2022-12-18T09:47:09;0.00;99.90
1568;DHT22;777;47.156;8.326;2022-12-18T09:49:42;0.10;99.90
1568;DHT22;777;47.156;8.326;2022-12-18T09:52:14;0.20;99.90
1568;DHT22;777;47.156;8.326;2022-12-18T09:54:44;0.20;99.90
1568;DHT22;777;47.156;8.326;2022-12-18T09:57:15;0.30;99.90
1568;DHT22;777;47.156;8.326;2022-12-18T09:59:49;0.40;99.90
1568;DHT22;777;47.156;8.326;2022-12-18T10:02:20;0.40;99.90
1568;DHT22;777;47.156;8.326;2022-12-18T10:04:55;0.50;99.90
1568;DHT22;777;47.156;8.326;2022-12-18T10:07:33;0.50;99.90
1568;DHT22;777;47.156;8.326;2022-12-18T10:10:07;0.60;99.90
1568;DHT22;777;47.156;8.326;2022-12-18T10:12:42;0.50;99.90
1568;DHT22;777;47.156;8.326;2022-12-18T10:15:17;0.60;99.90
1568;DHT22;777;47.156;8.326;2022-12-18T10:17:51;0.50;99.90
1568;DHT22;777;47.156;8.326;2022-12-18T10:20:24;0.50;99.90
1568;DHT22;777;47.156;8.326;2022-12-18T10:22:59;0.50;99.90
1568;DHT22;777;47.156;8.326;2022-12-18T10:25:31;0.40;99.90
1568;DHT22;777;47.156;8.326;2022-12-18T10:28:08;0.40;99.90
1568;DHT22;777;47.156;8.326;2022-12-18T10:30:38;0.50;99.90
1568;DHT22;777;47.156;8.326;2022-12-18T10:33:08;0.40;99.90
1568;DHT22;777;47.156;8.326;2022-12-18T10:35:41;0.40;99.90
1568;DHT22;777;47.156;8.326;2022-12-18T10:38:23;0.50;99.90
1568;DHT22;777;47.156;8.326;2022-12-18T10:40:52;0.10;99.90
1568;DHT22;777;47.156;8.326;2022-12-18T10:43:21;-0.20;99.90
1568;DHT22;777;47.156;8.326;2022-12-18T10:46:04;-0.30;99.90
1568;DHT22;777;47.156;8.326;2022-12-18T10:48:33;-0.60;99.90
1568;DHT22;777;47.156;8.326;2022-12-18T10:51:01;-0.70;99.90
1568;DHT22;777;47.156;8.326;2022-12-18T10:53:31;-0.70;99.90
1568;DHT22;777;47.156;8.326;2022-12-18T10:56:04;-0.40;99.90
1568;DHT22;777;47.156;8.326;2022-12-18T10:58:34;-0.30;99.90
1568;DHT22;777;47.156;8.326;2022-12-18T11:01:04;-0.50;99.90
1568;DHT22;777;47.156;8.326;2022-12-18T11:03:33;-0.70;99.90
1568;DHT22;777;47.156;8.326;2022-12-18T11:06:08;-0.80;99.90
1568;DHT22;777;47.156;8.326;2022-12-18T11:08:36;-0.70;99.90
1568;DHT22;777;47.156;8.326;2022-12-18T11:11:09;-0.80;99.90
1568;DHT22;777;47.156;8.326;2022-12-18T11:13:54;-1.00;99.90
1568;DHT22;777;47.156;8.326;2022-12-18T11:16:24;-1.00;99.90
1568;DHT22;777;47.156;8.326;2022-12-18T11:18:51;-1.00;99.90
1568;DHT22;777;47.156;8.326;2022-12-18T11:21:18;-0.90;99.90
1568;DHT22;777;47.156;8.326;2022-12-18T11:23:50;-0.80;99.90
1568;DHT22;777;47.156;8.326;2022-12-18T11:26:18;-0.70;99.90
1568;DHT22;777;47.156;8.326;2022-12-18T11:28:47;-0.70;99.90
1568;DHT22;777;47.156;8.326;2022-12-18T11:31:20;-0.60;99.90
1568;DHT22;777;47.156;8.326;2022-12-18T11:33:53;-0.50;99.90
1568;DHT22;777;47.156;8.326;2022-12-18T11:36:21;-0.50;99.90
1568;DHT22;777;47.156;8.326;2022-12-18T11:38:52;-0.60;99.90
1568;DHT22;777;47.156;8.326;2022-12-18T11:41:24;-0.70;99.90
1568;DHT22;777;47.156;8.326;2022-12-18T11:44:15;-0.80;99.90
1568;DHT22;777;47.156;8.326;2022-12-18T11:46:48;-0.70;99.90
1568;DHT22;777;47.156;8.326;2022-12-18T11:49:21;-0.60;99.90
1568;DHT22;777;47.156;8.326;2022-12-18T11:51:53;-0.50;99.90
1568;DHT22;777;47.156;8.326;2022-12-18T11:54:23;-0.50;99.90
1568;DHT22;777;47.156;8.326;2022-12-18T11:56:53;-0.30;99.90
1568;DHT22;777;47.156;8.326;2022-12-18T11:59:29;-0.10;99.90
1568;DHT22;777;47.156;8.326;2022-12-18T12:02:10;-0.20;99.90
1568;DHT22;777;47.156;8.326;2022-12-18T12:05:00;-0.20;99.90
1568;DHT22;777;47.156;8.326;2022-12-18T12:07:38;-0.10;99.90
1568;DHT22;777;47.156;8.326;2022-12-18T12:10:23;0.10;99.90
1568;DHT22;777;47.156;8.326;2022-12-18T12:13:03;0.20;99.90
1568;DHT22;777;47.156;8.326;2022-12-18T12:15:44;0.20;99.90
1568;DHT22;777;47.156;8.326;2022-12-18T12:18:21;0.30;99.90
1568;DHT22;777;47.156;8.326;2022-12-18T12:20:59;0.20;99.90
1568;DHT22;777;47.156;8.326;2022-12-18T12:23:35;0.10;99.90
1568;DHT22;777;47.156;8.326;2022-12-18T12:26:07;-0.10;99.90
1568;DHT22;777;47.156;8.326;2022-12-18T12:29:00;-0.20;99.90
1568;DHT22;777;47.156;8.326;2022-12-18T12:31:41;-0.30;99.90
1568;DHT22;777;47.156;8.326;2022-12-18T12:34:17;-0.30;99.90
1568;DHT22;777;47.156;8.326;2022-12-18T12:37:02;-0.40;99.90
1568;DHT22;777;47.156;8.326;2022-12-18T12:39:35;-0.50;99.90
1568;DHT22;777;47.156;8.326;2022-12-18T12:42:08;-0.50;99.90
1568;DHT22;777;47.156;8.326;2022-12-18T12:44:56;-0.80;99.90
1568;DHT22;777;47.156;8.326;2022-12-18T12:47:28;-0.70;99.90
1568;DHT22;777;47.156;8.326;2022-12-18T12:49:58;-0.60;99.90
1568;DHT22;777;47.156;8.326;2022-12-18T12:52:30;-0.50;99.90
1568;DHT22;777;47.156;8.326;2022-12-18T12:54:59;-0.60;99.90
1568;DHT22;777;47.156;8.326;2022-12-18T12:57:33;-0.70;99.90
1568;DHT22;777;47.156;8.326;2022-12-18T13:00:04;-0.80;99.90
1568;DHT22;777;47.156;8.326;2022-12-18T13:02:37;-0.80;99.90
1568;DHT22;777;47.156;8.326;2022-12-18T13:05:12;-0.90;99.90
1568;DHT22;777;47.156;8.326;2022-12-18T13:07:49;-0.80;99.90
1568;DHT22;777;47.156;8.326;2022-12-18T13:10:32;-0.50;99.90
1568;DHT22;777;47.156;8.326;2022-12-18T13:13:02;-0.30;99.90
1568;DHT22;777;47.156;8.326;2022-12-18T13:15:33;-0.30;99.90
1568;DHT22;777;47.156;8.326;2022-12-18T13:18:19;-0.30;99.90
1568;DHT22;777;47.156;8.326;2022-12-18T13:20:50;-0.40;99.90
1568;DHT22;777;47.156;8.326;2022-12-18T13:23:33;-0.50;99.90
1568;DHT22;777;47.156;8.326;2022-12-18T13:26:30;-0.50;99.90
1568;DHT22;777;47.156;8.326;2022-12-18T13:29:03;-0.40;99.90
1568;DHT22;777;47.156;8.326;2022-12-18T13:37:55;-0.40;99.90
1568;DHT22;777;47.156;8.326;2022-12-18T13:43:36;-0.80;99.90
1568;DHT22;777;47.156;8.326;2022-12-18T13:46:18;-0.80;99.90
1568;DHT22;777;47.156;8.326;2022-12-18T13:48:51;-0.90;99.90
1568;DHT22;777;47.156;8.326;2022-12-18T13:51:20;-1.00;99.90
1568;DHT22;777;47.156;8.326;2022-12-18T13:53:50;-1.30;99.90
1568;DHT22;777;47.156;8.326;2022-12-18T13:56:23;-1.20;99.90
1568;DHT22;777;47.156;8.326;2022-12-18T14:01:44;-1.00;99.90
1568;DHT22;777;47.156;8.326;2022-12-18T14:04:16;-1.00;99.90
1568;DHT22;777;47.156;8.326;2022-12-18T14:06:45;-1.20;99.90
1568;DHT22;777;47.156;8.326;2022-12-18T14:09:14;-1.10;99.90
1568;DHT22;777;47.156;8.326;2022-12-18T14:11:46;-1.20;99.90
1568;DHT22;777;47.156;8.326;2022-12-18T14:14:14;-1.10;99.90
1568;DHT22;777;47.156;8.326;2022-12-18T14:16:43;-1.00;99.90
1568;DHT22;777;47.156;8.326;2022-12-18T14:19:13;-1.00;99.90
1568;DHT22;777;47.156;8.326;2022-12-18T14:21:45;-1.00;99.90
1568;DHT22;777;47.156;8.326;2022-12-18T14:24:14;-1.20;99.90
1568;DHT22;777;47.156;8.326;2022-12-18T14:26:42;-1.20;99.90
1568;DHT22;777;47.156;8.326;2022-12-18T14:29:22;-1.30;99.90
1568;DHT22;777;47.156;8.326;2022-12-18T14:32:08;-1.30;99.90
1568;DHT22;777;47.156;8.326;2022-12-18T14:34:36;-1.40;99.90
1568;DHT22;777;47.156;8.326;2022-12-18T14:37:03;-1.40;99.90
1568;DHT22;777;47.156;8.326;2022-12-18T14:39:31;-1.50;99.90
1568;DHT22;777;47.156;8.326;2022-12-18T14:41:58;-1.60;99.90
1568;DHT22;777;47.156;8.326;2022-12-18T14:44:25;-1.50;99.90
1568;DHT22;777;47.156;8.326;2022-12-18T14:46:52;-1.50;99.90
1568;DHT22;777;47.156;8.326;2022-12-18T14:49:24;-1.40;99.90
1568;DHT22;777;47.156;8.326;2022-12-18T14:51:54;-1.50;99.90
1568;DHT22;777;47.156;8.326;2022-12-18T14:54:23;-1.50;99.90
1568;DHT22;777;47.156;8.326;2022-12-18T14:56:56;-1.50;99.90
1568;DHT22;777;47.156;8.326;2022-12-18T14:59:27;-1.50;99.90
1568;DHT22;777;47.156;8.326;2022-12-18T15:01:59;-1.40;99.90
1568;DHT22;777;47.156;8.326;2022-12-18T15:04:30;-1.40;99.90
1568;DHT22;777;47.156;8.326;2022-12-18T15:07:08;-1.40;99.90
1568;DHT22;777;47.156;8.326;2022-12-18T15:09:37;-1.50;99.90
1568;DHT22;777;47.156;8.326;2022-12-18T15:12:05;-1.50;99.90
1568;DHT22;777;47.156;8.326;2022-12-18T15:14:39;-1.60;99.90
1568;DHT22;777;47.156;8.326;2022-12-18T15:17:16;-1.70;99.90
1568;DHT22;777;47.156;8.326;2022-12-18T15:19:45;-1.80;99.90
1568;DHT22;777;47.156;8.326;2022-12-18T15:22:26;-1.80;99.90
1568;DHT22;777;47.156;8.326;2022-12-18T15:24:54;-1.80;99.90
1568;DHT22;777;47.156;8.326;2022-12-18T15:27:25;-1.70;99.90
1568;DHT22;777;47.156;8.326;2022-12-18T15:30:20;-1.70;99.90
1568;DHT22;777;47.156;8.326;2022-12-18T15:32:47;-1.70;99.90
1568;DHT22;777;47.156;8.326;2022-12-18T15:35:19;-1.80;99.90
1568;DHT22;777;47.156;8.326;2022-12-18T15:37:47;-1.80;99.90
1568;DHT22;777;47.156;8.326;2022-12-18T15:40:15;-1.80;99.90
1568;DHT22;777;47.156;8.326;2022-12-18T15:42:43;-1.80;99.90
1568;DHT22;777;47.156;8.326;2022-12-18T15:45:28;-1.90;99.90
1568;DHT22;777;47.156;8.326;2022-12-18T15:47:55;-1.90;99.90
1568;DHT22;777;47.156;8.326;2022-12-18T15:50:23;-1.90;99.90
1568;DHT22;777;47.156;8.326;2022-12-18T15:52:52;-1.90;99.90
1568;DHT22;777;47.156;8.326;2022-12-18T15:55:21;-1.90;99.90
1568;DHT22;777;47.156;8.326;2022-12-18T15:58:07;-1.90;99.90
1568;DHT22;777;47.156;8.326;2022-12-18T16:00:36;-1.80;99.90
1568;DHT22;777;47.156;8.326;2022-12-18T16:03:03;-1.80;99.90
1568;DHT22;777;47.156;8.326;2022-12-18T16:05:32;-1.80;99.90
1568;DHT22;777;47.156;8.326;2022-12-18T16:07:59;-1.80;99.90
1568;DHT22;777;47.156;8.326;2022-12-18T16:10:26;-1.80;99.90
1568;DHT22;777;47.156;8.326;2022-12-18T16:12:53;-1.80;99.90
1568;DHT22;777;47.156;8.326;2022-12-18T16:15:21;-1.70;99.90
1568;DHT22;777;47.156;8.326;2022-12-18T16:17:47;-1.80;99.90
1568;DHT22;777;47.156;8.326;2022-12-18T16:20:16;-1.70;99.90
1568;DHT22;777;47.156;8.326;2022-12-18T16:22:45;-1.70;99.90
1568;DHT22;777;47.156;8.326;2022-12-18T16:25:18;-1.70;99.90
1568;DHT22;777;47.156;8.326;2022-12-18T16:27:50;-1.80;99.90
1568;DHT22;777;47.156;8.326;2022-12-18T16:30:19;-1.70;99.90
1568;DHT22;777;47.156;8.326;2022-12-18T16:32:47;-1.80;99.90
1568;DHT22;777;47.156;8.326;2022-12-18T16:35:15;-1.80;99.90
1568;DHT22;777;47.156;8.326;2022-12-18T16:37:44;-1.80;99.90
1568;DHT22;777;47.156;8.326;2022-12-18T16:40:13;-1.70;99.90
1568;DHT22;777;47.156;8.326;2022-12-18T16:42:42;-1.70;99.90
1568;DHT22;777;47.156;8.326;2022-12-18T16:45:13;-1.70;99.90
1568;DHT22;777;47.156;8.326;2022-12-18T16:47:40;-1.80;99.90
1568;DHT22;777;47.156;8.326;2022-12-18T16:50:09;-1.80;99.90
1568;DHT22;777;47.156;8.326;2022-12-18T16:52:36;-1.80;99.90
1568;DHT22;777;47.156;8.326;2022-12-18T16:55:06;-1.80;99.90